Time;durP1;ratioP1;P1;durP2;ratioP2;P2;SDS_P1;SDS_P2;PMS_P1;PMS_P2;Temp;Humidity;BMP_temperature;BMP_pressure;BME280_temperature;BME280_humidity;BME280_pressure;Samples;Min_cycle;Max_cycle;Signal;HPM_P1;HPM_P2
2023/08/15 00:00:38;;;;;;;;;;;;;;;17.95;100.00;101180.06;4931082;28;20419;-81
2023/08/15 00:03:24;;;;;;;;;;;;;;;17.97;100.00;101180.81;4952798;28;20388;-82
2023/08/15 00:06:10;;;;;;;;;;;;;;;17.95;100.00;101180.91;4955699;28;20393;-83
2023/08/15 00:08:55;;;;;;;;;;;;;;;17.95;100.00;101178.25;4959681;28;20327;-81
2023/08/15 00:11:44;;;;;;;;;;;;;;;17.95;100.00;101180.06;4955988;28;20424;-82
2023/08/15 00:14:30;;;;;;;;;;;;;;;17.94;100.00;101181.88;4955662;28;19930;-81
2023/08/15 00:17:15;;;;;;;;;;;;;;;17.92;100.00;101173.97;4954709;28;19932;-82
2023/08/15 00:20:01;;;;;;;;;;;;;;;17.90;100.00;101175.03;4956550;28;20372;-81
2023/08/15 00:22:46;;;;;;;;;;;;;;;17.88;100.00;101179.66;4955787;28;19932;-81
2023/08/15 00:25:35;;;;;;;;;;;;;;;17.85;100.00;101171.81;4952064;28;20649;-81
2023/08/15 00:28:21;;;;;;;;;;;;;;;17.83;100.00;101165.72;4956908;28;19986;-81
2023/08/15 00:31:07;;;;;;;;;;;;;;;17.80;100.00;101166.78;4956404;28;19969;-81
2023/08/15 00:33:52;;;;;;;;;;;;;;;17.76;100.00;101171.50;4955377;28;19925;-81
2023/08/15 00:36:46;;;;;;;;;;;;;;;17.72;100.00;101163.81;4957190;28;19972;-84
2023/08/15 00:39:31;;;;;;;;;;;;;;;17.72;100.00;101158.47;4958113;28;19934;-84
2023/08/15 00:42:18;;;;;;;;;;;;;;;17.71;100.00;101165.63;4959530;28;20257;-83
2023/08/15 00:45:04;;;;;;;;;;;;;;;17.70;100.00;101163.06;4956177;28;19972;-83
2023/08/15 00:47:52;;;;;;;;;;;;;;;17.68;100.00;101163.16;4955359;28;19952;-83
2023/08/15 00:50:38;;;;;;;;;;;;;;;17.65;100.00;101163.38;4952664;28;20488;-83
2023/08/15 00:53:24;;;;;;;;;;;;;;;17.64;100.00;101167.03;4955766;28;19922;-84
2023/08/15 00:56:09;;;;;;;;;;;;;;;17.61;100.00;101161.91;4957412;28;19931;-83
2023/08/15 00:58:55;;;;;;;;;;;;;;;17.61;100.00;101157.38;4956845;28;20283;-83
2023/08/15 01:01:41;;;;;;;;;;;;;;;17.61;100.00;101151.19;4958681;28;20372;-84
2023/08/15 01:04:27;;;;;;;;;;;;;;;17.62;100.00;101151.09;4940636;28;20317;-83
2023/08/15 01:07:12;;;;;;;;;;;;;;;17.62;100.00;101147.53;4958506;28;19933;-84
2023/08/15 01:09:58;;;;;;;;;;;;;;;17.62;100.00;101137.72;4954104;28;19979;-84
2023/08/15 01:13:03;;;;;;;;;;;;;;;17.64;100.00;101134.91;4954539;28;19937;-84
2023/08/15 01:15:52;;;;;;;;;;;;;;;17.65;100.00;101139.28;4957126;28;19944;-84
2023/08/15 01:18:39;;;;;;;;;;;;;;;17.65;100.00;101125.91;4959846;28;20546;-84
2023/08/15 01:21:25;;;;;;;;;;;;;;;17.64;100.00;101137.56;4955270;28;19932;-84
2023/08/15 01:24:11;;;;;;;;;;;;;;;17.62;100.00;101159.13;4928836;28;19930;-84
2023/08/15 01:26:59;;;;;;;;;;;;;;;17.63;100.00;101159.97;4918421;29;19926;-84
2023/08/15 01:29:47;;;;;;;;;;;;;;;17.63;100.00;101171.53;4929319;28;19930;-85
2023/08/15 01:32:37;;;;;;;;;;;;;;;17.67;100.00;101165.94;4927912;28;20046;-83
2023/08/15 01:35:24;;;;;;;;;;;;;;;17.68;100.00;101170.34;4929718;28;20082;-85
2023/08/15 01:38:13;;;;;;;;;;;;;;;17.68;100.00;101173.88;4932524;28;20570;-85
2023/08/15 01:40:59;;;;;;;;;;;;;;;17.67;100.00;101168.63;4932719;28;20366;-86
2023/08/15 01:43:45;;;;;;;;;;;;;;;17.64;100.00;101169.69;4920026;29;19922;-85
2023/08/15 01:46:31;;;;;;;;;;;;;;;17.62;100.00;101168.97;4918884;29;20009;-84
2023/08/15 01:49:21;;;;;;;;;;;;;;;17.58;100.00;101168.31;4915270;29;19948;-85
2023/08/15 01:52:07;;;;;;;;;;;;;;;17.58;100.00;101167.44;4932507;28;20018;-85
2023/08/15 01:54:53;;;;;;;;;;;;;;;17.57;100.00;101163.06;4927405;28;21561;-85
2023/08/15 01:57:39;;;;;;;;;;;;;;;17.55;100.00;101165.00;4926197;28;19965;-85
2023/08/15 02:00:32;;;;;;;;;;;;;;;17.53;100.00;101156.22;4929582;28;19933;-84
2023/08/15 02:03:18;;;;;;;;;;;;;;;17.52;100.00;101158.03;4919339;29;19922;-85
2023/08/15 02:06:04;;;;;;;;;;;;;;;17.48;100.00;101151.19;4931993;29;20354;-85
2023/08/15 02:08:53;;;;;;;;;;;;;;;17.46;100.00;101142.41;4916085;29;19989;-86
2023/08/15 02:11:38;;;;;;;;;;;;;;;17.43;100.00;101138.13;4920584;29;21716;-85
2023/08/15 02:14:24;;;;;;;;;;;;;;;17.45;100.00;101146.06;4912823;29;19926;-83
2023/08/15 02:17:10;;;;;;;;;;;;;;;17.44;100.00;101152.38;4902037;29;19934;-84
2023/08/15 02:19:56;;;;;;;;;;;;;;;17.42;100.00;101144.44;4914418;29;19965;-84
2023/08/15 02:22:44;;;;;;;;;;;;;;;17.38;100.00;101141.13;4937560;28;19933;-85
2023/08/15 02:25:30;;;;;;;;;;;;;;;17.35;100.00;101146.72;4954716;28;19941;-84
2023/08/15 02:28:16;;;;;;;;;;;;;;;17.33;100.00;101145.09;4953627;28;19930;-84
2023/08/15 02:31:04;;;;;;;;;;;;;;;17.31;100.00;101145.19;4952280;28;20377;-84
2023/08/15 02:33:50;;;;;;;;;;;;;;;17.31;100.00;101147.00;4950155;28;20850;-83
2023/08/15 02:36:36;;;;;;;;;;;;;;;17.29;100.00;101147.13;4967266;28;19989;-84
2023/08/15 02:39:21;;;;;;;;;;;;;;;17.28;100.00;101160.59;4953371;28;20361;-84
2023/08/15 02:42:07;;;;;;;;;;;;;;;17.28;100.00;101161.47;4952072;28;19925;-83
2023/08/15 02:44:53;;;;;;;;;;;;;;;17.28;100.00;101161.47;4955488;28;19926;-83
2023/08/15 02:47:45;;;;;;;;;;;;;;;17.29;100.00;101167.66;4952987;28;20122;-84
2023/08/15 02:50:31;;;;;;;;;;;;;;;17.33;100.00;101162.00;4955624;28;20899;-85
2023/08/15 02:53:16;;;;;;;;;;;;;;;17.37;100.00;101162.63;4954205;28;19930;-84
2023/08/15 02:56:02;;;;;;;;;;;;;;;17.44;100.00;101160.41;4954956;28;19933;-84
2023/08/15 02:58:47;;;;;;;;;;;;;;;17.49;100.00;101163.63;4952056;28;20415;-82
2023/08/15 03:01:33;;;;;;;;;;;;;;;17.52;100.00;101158.03;4968753;28;19941;-84
2023/08/15 03:04:19;;;;;;;;;;;;;;;17.56;100.00;101164.91;4944872;28;19940;-84
2023/08/15 03:07:05;;;;;;;;;;;;;;;17.60;100.00;101161.03;4954317;28;20495;-84
2023/08/15 03:09:51;;;;;;;;;;;;;;;17.64;100.00;101172.38;4951517;28;19926;-84
2023/08/15 03:12:36;;;;;;;;;;;;;;;17.68;100.00;101167.66;4952785;28;19930;-84
2023/08/15 03:15:22;;;;;;;;;;;;;;;17.69;100.00;101175.59;4952388;28;19930;-84
2023/08/15 03:18:10;;;;;;;;;;;;;;;17.73;100.00;101178.91;4953433;28;20828;-83
2023/08/15 03:21:00;;;;;;;;;;;;;;;17.76;100.00;101184.91;4953064;28;19932;-84
2023/08/15 03:23:46;;;;;;;;;;;;;;;17.81;100.00;101183.72;4948718;28;20017;-83
2023/08/15 03:26:31;;;;;;;;;;;;;;;17.83;100.00;101173.75;4954565;28;20409;-84
2023/08/15 03:29:17;;;;;;;;;;;;;;;17.86;100.00;101178.91;4952970;28;20121;-84
2023/08/15 03:32:03;;;;;;;;;;;;;;;17.88;100.00;101185.00;4964260;28;20672;-84
2023/08/15 03:34:48;;;;;;;;;;;;;;;17.89;100.00;101179.56;4954666;28;19930;-85
2023/08/15 03:37:35;;;;;;;;;;;;;;;17.90;100.00;101180.38;4952341;28;19937;-84
2023/08/15 03:40:21;;;;;;;;;;;;;;;17.91;100.00;101192.81;4953826;28;20425;-85
2023/08/15 03:43:06;;;;;;;;;;;;;;;17.91;100.00;101184.78;4955935;28;19936;-83
2023/08/15 03:45:52;;;;;;;;;;;;;;;17.92;100.00;101191.84;4955065;28;20424;-84
2023/08/15 03:48:38;;;;;;;;;;;;;;;17.90;100.00;101189.28;4959341;28;20381;-83
2023/08/15 03:51:23;;;;;;;;;;;;;;;17.89;100.00;101186.72;4958420;28;20017;-83
2023/08/15 03:54:09;;;;;;;;;;;;;;;17.87;100.00;101185.97;4961227;28;19940;-84
2023/08/15 03:56:55;;;;;;;;;;;;;;;17.84;100.00;101179.00;4962769;28;19927;-84
2023/08/15 03:59:43;;;;;;;;;;;;;;;17.82;100.00;101180.91;4961743;28;20468;-83
2023/08/15 04:02:28;;;;;;;;;;;;;;;17.76;100.00;101182.22;4961919;28;19922;-84
2023/08/15 04:05:14;;;;;;;;;;;;;;;17.70;100.00;101174.63;4958837;28;19937;-83
2023/08/15 04:08:03;;;;;;;;;;;;;;;17.66;100.00;101181.19;4961403;28;19930;-85
2023/08/15 04:10:51;;;;;;;;;;;;;;;17.60;100.00;101182.44;4957925;28;19933;-83
2023/08/15 04:13:36;;;;;;;;;;;;;;;17.57;100.00;101174.63;4946971;28;20060;-82
2023/08/15 04:16:22;;;;;;;;;;;;;;;17.51;100.00;101181.28;4956510;28;19926;-84
2023/08/15 04:19:08;;;;;;;;;;;;;;;17.46;100.00;101178.06;4960292;28;19937;-84
2023/08/15 04:21:53;;;;;;;;;;;;;;;17.42;100.00;101173.88;4969283;28;19926;-85
2023/08/15 04:24:41;;;;;;;;;;;;;;;17.38;100.00;101169.72;4955360;28;19985;-86
2023/08/15 04:27:27;;;;;;;;;;;;;;;17.35;100.00;101168.13;4975443;28;19934;-83
2023/08/15 04:30:12;;;;;;;;;;;;;;;17.33;100.00;101169.19;4959379;28;19926;-83
2023/08/15 04:33:01;;;;;;;;;;;;;;;17.31;100.00;101171.09;4961333;28;19941;-84
2023/08/15 04:35:46;;;;;;;;;;;;;;;17.28;100.00;101176.66;4959883;28;19926;-85
2023/08/15 04:38:34;;;;;;;;;;;;;;;17.26;100.00;101179.44;4959065;28;19980;-84
2023/08/15 04:41:20;;;;;;;;;;;;;;;17.23;100.00;101185.84;4954679;28;20346;-84
2023/08/15 04:44:05;;;;;;;;;;;;;;;17.19;100.00;101192.38;4955772;28;19973;-84
2023/08/15 04:46:51;;;;;;;;;;;;;;;17.14;100.00;101199.84;4961178;28;19985;-84
2023/08/15 04:49:37;;;;;;;;;;;;;;;17.08;100.00;101200.28;4958617;28;19930;-84
2023/08/15 04:52:22;;;;;;;;;;;;;;;17.04;100.00;101201.44;4955199;28;19926;-82
2023/08/15 04:55:10;;;;;;;;;;;;;;;16.99;100.00;101211.56;4956495;28;19926;-83
2023/08/15 04:57:56;;;;;;;;;;;;;;;16.93;100.00;101221.72;4969733;28;19921;-84
2023/08/15 05:00:44;;;;;;;;;;;;;;;16.88;100.00;101218.47;4957423;28;19941;-83
2023/08/15 05:03:29;;;;;;;;;;;;;;;16.84;100.00;101219.66;4957221;28;20514;-83
2023/08/15 05:06:15;;;;;;;;;;;;;;;16.81;100.00;101220.72;4959726;28;20443;-84
2023/08/15 05:09:01;;;;;;;;;;;;;;;16.80;100.00;101220.81;4960206;28;21682;-83
2023/08/15 05:11:46;;;;;;;;;;;;;;;16.79;100.00;101222.59;4956828;28;19926;-84
2023/08/15 05:14:32;;;;;;;;;;;;;;;16.79;100.00;101225.28;4955867;28;19937;-84
2023/08/15 05:17:19;;;;;;;;;;;;;;;16.80;100.00;101231.50;4939095;28;19934;-85
2023/08/15 05:20:04;;;;;;;;;;;;;;;16.77;100.00;101232.56;4953390;28;19980;-83
2023/08/15 05:22:50;;;;;;;;;;;;;;;16.75;100.00;101237.16;4954014;28;19948;-84
2023/08/15 05:25:36;;;;;;;;;;;;;;;16.75;100.00;101241.63;4954775;28;20278;-85
2023/08/15 05:28:21;;;;;;;;;;;;;;;16.73;100.00;101236.41;4962877;28;20837;-85
2023/08/15 05:31:07;;;;;;;;;;;;;;;16.71;100.00;101249.00;4952665;28;20362;-84
2023/08/15 05:33:56;;;;;;;;;;;;;;;16.70;100.00;101248.16;4971469;28;19926;-84
2023/08/15 05:36:41;;;;;;;;;;;;;;;16.69;100.00;101262.44;4958353;28;19950;-84
2023/08/15 05:39:27;;;;;;;;;;;;;;;16.73;100.00;101272.97;4959254;28;19925;-84
2023/08/15 05:42:17;;;;;;;;;;;;;;;16.79;100.00;101275.25;4973206;28;19966;-82
2023/08/15 05:45:05;;;;;;;;;;;;;;;16.84;100.00;101281.16;4960562;28;20011;-84
2023/08/15 05:47:54;;;;;;;;;;;;;;;16.89;100.00;101281.69;4960277;28;19937;-85
2023/08/15 05:50:48;;;;;;;;;;;;;;;16.94;100.00;101289.44;4961506;28;19981;-85
2023/08/15 05:53:34;;;;;;;;;;;;;;;17.01;100.00;101295.22;4956106;28;19926;-86
2023/08/15 05:56:20;;;;;;;;;;;;;;;17.06;100.00;101301.16;4963948;28;20397;-84
2023/08/15 05:59:05;;;;;;;;;;;;;;;17.15;100.00;101305.91;4959839;28;20293;-84
2023/08/15 06:01:51;;;;;;;;;;;;;;;17.24;100.00;101299.94;4959015;28;19927;-85
2023/08/15 06:04:37;;;;;;;;;;;;;;;17.30;100.00;101297.81;4961560;28;19930;-83
2023/08/15 06:07:23;;;;;;;;;;;;;;;17.35;100.00;101296.56;4956266;28;19932;-85
2023/08/15 06:10:08;;;;;;;;;;;;;;;17.48;100.00;101304.59;4968805;28;19965;-85
2023/08/15 06:12:54;;;;;;;;;;;;;;;17.69;100.00;101308.63;4946947;28;19984;-83
2023/08/15 06:15:40;;;;;;;;;;;;;;;17.90;100.00;101316.97;4958255;28;19926;-85
2023/08/15 06:18:26;;;;;;;;;;;;;;;18.06;100.00;101308.75;4953041;28;19932;-85
2023/08/15 06:21:11;;;;;;;;;;;;;;;18.22;100.00;101308.53;4958544;28;19926;-84
2023/08/15 06:23:57;;;;;;;;;;;;;;;18.36;100.00;101304.88;4958222;28;19926;-84
2023/08/15 06:26:42;;;;;;;;;;;;;;;18.50;100.00;101311.06;4959063;28;20412;-84
2023/08/15 06:29:28;;;;;;;;;;;;;;;18.62;100.00;101309.34;4956609;28;20486;-83
2023/08/15 06:32:27;;;;;;;;;;;;;;;18.73;100.00;101309.41;4956147;28;20009;-84
2023/08/15 06:35:12;;;;;;;;;;;;;;;18.89;100.00;101309.13;4949873;28;20007;-84
2023/08/15 06:38:01;;;;;;;;;;;;;;;19.02;100.00;101311.81;4956484;28;19933;-84
2023/08/15 06:40:46;;;;;;;;;;;;;;;19.21;100.00;101310.44;4956086;28;19926;-79
2023/08/15 06:43:38;;;;;;;;;;;;;;;19.33;100.00;101312.19;4954406;28;20374;-80
2023/08/15 06:46:24;;;;;;;;;;;;;;;19.54;100.00;101312.41;4955039;28;20296;-78
2023/08/15 06:49:09;;;;;;;;;;;;;;;19.64;100.00;101312.56;4955146;28;19930;-78
2023/08/15 06:51:55;;;;;;;;;;;;;;;19.72;100.00;101316.47;4954360;28;19923;-77
2023/08/15 06:54:40;;;;;;;;;;;;;;;19.83;100.00;101327.22;4957446;28;20352;-77
2023/08/15 06:57:26;;;;;;;;;;;;;;;19.89;100.00;101331.28;4960627;28;20644;-78
2023/08/15 07:00:12;;;;;;;;;;;;;;;20.03;100.00;101336.47;4969065;28;19926;-78
2023/08/15 07:02:57;;;;;;;;;;;;;;;20.15;100.00;101340.03;4961169;28;20379;-76
2023/08/15 07:05:44;;;;;;;;;;;;;;;20.22;100.00;101345.78;4952380;28;19973;-76
2023/08/15 07:08:30;;;;;;;;;;;;;;;20.34;100.00;101342.13;4953023;28;20023;-75
2023/08/15 07:11:19;;;;;;;;;;;;;;;20.54;100.00;101350.41;4953553;28;19925;-75
2023/08/15 07:14:05;;;;;;;;;;;;;;;20.69;100.00;101351.03;4949958;28;19925;-75
2023/08/15 07:16:51;;;;;;;;;;;;;;;20.66;100.00;101353.97;4950634;28;19964;-77
2023/08/15 07:19:37;;;;;;;;;;;;;;;20.68;100.00;101365.44;4951581;28;20004;-79
2023/08/15 07:22:23;;;;;;;;;;;;;;;20.72;100.00;101369.63;4955768;28;19926;-77
2023/08/15 07:25:12;;;;;;;;;;;;;;;20.76;100.00;101371.06;4943877;28;19922;-78
2023/08/15 07:27:58;;;;;;;;;;;;;;;20.86;100.00;101376.59;4948063;28;19974;-79
2023/08/15 07:30:45;;;;;;;;;;;;;;;20.97;100.00;101378.41;4935426;28;20559;-77
2023/08/15 07:33:31;;;;;;;;;;;;;;;21.09;100.00;101386.47;4945593;28;20417;-77
2023/08/15 07:36:16;;;;;;;;;;;;;;;21.21;100.00;101385.47;4938670;28;19952;-77
2023/08/15 07:39:03;;;;;;;;;;;;;;;21.26;100.00;101385.06;4945726;28;19945;-77
2023/08/15 07:41:58;;;;;;;;;;;;;;;21.29;100.00;101382.97;4933280;28;19922;-78
2023/08/15 07:44:43;;;;;;;;;;;;;;;21.39;100.00;101399.22;4946967;28;19977;-79
2023/08/15 07:47:33;;;;;;;;;;;;;;;21.50;100.00;101401.03;4947479;28;19926;-78
2023/08/15 07:50:26;;;;;;;;;;;;;;;21.45;100.00;101400.53;4942114;28;20393;-78
2023/08/15 07:53:12;;;;;;;;;;;;;;;21.48;100.00;101392.22;4946656;28;19945;-77
2023/08/15 07:55:58;;;;;;;;;;;;;;;21.52;100.00;101395.53;4945324;28;19933;-78
2023/08/15 07:58:44;;;;;;;;;;;;;;;21.48;100.00;101403.00;4947979;28;20189;-76
2023/08/15 08:01:35;;;;;;;;;;;;;;;21.47;100.00;101403.13;4947978;28;19938;-76
2023/08/15 08:04:21;;;;;;;;;;;;;;;21.56;100.00;101410.41;4925858;28;20025;-77
2023/08/15 08:07:06;;;;;;;;;;;;;;;21.57;100.00;101407.59;4937901;28;19931;-76
2023/08/15 08:09:52;;;;;;;;;;;;;;;21.62;100.00;101412.59;4946242;28;20309;-76
2023/08/15 08:12:38;;;;;;;;;;;;;;;21.73;100.00;101419.81;4947426;28;19926;-76
2023/08/15 08:15:23;;;;;;;;;;;;;;;21.84;100.00;101422.47;4944724;28;20073;-76
2023/08/15 08:18:09;;;;;;;;;;;;;;;21.95;100.00;101420.72;4945813;28;19926;-77
2023/08/15 08:20:55;;;;;;;;;;;;;;;21.96;100.00;101420.56;4938493;28;19926;-77
2023/08/15 08:23:40;;;;;;;;;;;;;;;21.98;100.00;101426.69;4935352;28;19926;-76
2023/08/15 08:26:26;;;;;;;;;;;;;;;22.00;100.00;101421.16;4960581;28;20680;-75
2023/08/15 08:29:12;;;;;;;;;;;;;;;22.07;100.00;101435.81;4946141;28;20293;-77
2023/08/15 08:31:58;;;;;;;;;;;;;;;22.19;100.00;101441.16;4949407;28;19980;-77
2023/08/15 08:34:43;;;;;;;;;;;;;;;22.20;100.00;101441.03;4955127;28;19980;-75
2023/08/15 08:37:29;;;;;;;;;;;;;;;22.28;100.00;101431.41;4951356;28;19978;-77
2023/08/15 08:40:16;;;;;;;;;;;;;;;22.32;100.00;101441.81;4951837;28;20293;-76
2023/08/15 08:43:01;;;;;;;;;;;;;;;22.31;100.00;101441.94;4955475;28;19926;-76
2023/08/15 08:45:50;;;;;;;;;;;;;;;22.42;100.00;101449.09;4958326;28;21555;-77
2023/08/15 08:48:38;;;;;;;;;;;;;;;22.61;100.00;101449.22;4953706;28;20385;-77
2023/08/15 08:51:24;;;;;;;;;;;;;;;22.79;100.00;101451.31;4954307;28;19922;-77
2023/08/15 08:54:10;;;;;;;;;;;;;;;22.77;100.00;101456.00;4955116;28;19926;-77
2023/08/15 08:56:56;;;;;;;;;;;;;;;22.66;100.00;101454.22;4955007;28;19957;-77
2023/08/15 08:59:42;;;;;;;;;;;;;;;22.51;100.00;101459.13;4956412;28;20464;-80
2023/08/15 09:02:28;;;;;;;;;;;;;;;22.34;100.00;101450.59;4963219;28;20016;-81
2023/08/15 09:05:16;;;;;;;;;;;;;;;22.39;100.00;101455.63;4949606;28;21764;-80
2023/08/15 09:08:02;;;;;;;;;;;;;;;22.60;100.00;101463.72;4957240;28;19973;-81
2023/08/15 09:10:51;;;;;;;;;;;;;;;22.81;99.03;101470.06;4961739;28;20028;-80
2023/08/15 09:13:44;;;;;;;;;;;;;;;22.78;95.94;101468.50;4960019;28;20833;-80
2023/08/15 09:16:30;;;;;;;;;;;;;;;22.55;97.67;101465.09;4959835;28;19930;-82
2023/08/15 09:19:16;;;;;;;;;;;;;;;22.36;100.00;101482.84;4959654;28;20017;-80
2023/08/15 09:22:02;;;;;;;;;;;;;;;22.38;100.00;101473.63;4954168;28;20466;-80
2023/08/15 09:24:47;;;;;;;;;;;;;;;22.33;100.00;101475.88;4957179;28;20401;-81
2023/08/15 09:27:34;;;;;;;;;;;;;;;22.31;100.00;101475.16;4956394;28;19930;-80
2023/08/15 09:30:22;;;;;;;;;;;;;;;22.21;100.00;101485.00;4960333;28;20021;-82
2023/08/15 09:33:09;;;;;;;;;;;;;;;22.15;99.08;101482.81;4957711;28;20419;-81
2023/08/15 09:35:54;;;;;;;;;;;;;;;22.03;98.37;101477.50;4972991;28;19922;-81
2023/08/15 09:38:43;;;;;;;;;;;;;;;22.03;100.00;101487.44;4955459;28;19921;-79
2023/08/15 09:41:29;;;;;;;;;;;;;;;22.13;98.08;101482.09;4952634;28;19996;-80
2023/08/15 09:44:23;;;;;;;;;;;;;;;22.22;100.00;101492.97;4952018;28;19922;-80
2023/08/15 09:47:08;;;;;;;;;;;;;;;22.29;100.00;101487.94;4960915;28;19945;-81
2023/08/15 09:49:59;;;;;;;;;;;;;;;22.41;100.00;101488.72;4957939;28;19922;-80
2023/08/15 09:52:45;;;;;;;;;;;;;;;22.51;100.00;101491.50;4959504;28;19980;-80
2023/08/15 09:55:31;;;;;;;;;;;;;;;22.65;99.47;101483.06;4959737;28;19922;-81
2023/08/15 09:58:16;;;;;;;;;;;;;;;22.83;96.32;101482.44;4957505;28;20430;-78
2023/08/15 10:01:03;;;;;;;;;;;;;;;23.01;94.33;101490.75;4958347;28;19954;-82
2023/08/15 10:03:49;;;;;;;;;;;;;;;23.10;95.00;101488.22;4963397;28;19922;-81
2023/08/15 10:06:34;;;;;;;;;;;;;;;23.07;92.62;101486.63;4957716;28;19922;-81
2023/08/15 10:09:20;;;;;;;;;;;;;;;22.97;93.26;101494.69;4968296;28;19933;-80
2023/08/15 10:12:09;;;;;;;;;;;;;;;22.85;93.98;101496.66;4958198;28;19926;-81
2023/08/15 10:15:22;;;;;;;;;;;;;;;22.80;91.35;101496.19;4939956;28;20534;-82
2023/08/15 10:18:08;;;;;;;;;;;;;;;22.76;93.62;101506.41;4964730;28;19922;-78
2023/08/15 10:20:56;;;;;;;;;;;;;;;22.75;91.44;101511.91;4953095;28;19928;-79
2023/08/15 10:23:41;;;;;;;;;;;;;;;22.71;95.03;101511.34;4955432;28;19922;-79
2023/08/15 10:26:28;;;;;;;;;;;;;;;22.65;89.86;101518.13;4953716;28;19998;-79
2023/08/15 10:29:13;;;;;;;;;;;;;;;22.57;91.69;101512.53;4953743;28;19961;-79
2023/08/15 10:32:09;;;;;;;;;;;;;;;22.59;92.79;101524.06;4963185;28;19961;-79
2023/08/15 10:35:01;;;;;;;;;;;;;;;22.63;93.16;101512.03;4950050;28;19965;-79
2023/08/15 10:37:48;;;;;;;;;;;;;;;22.72;88.95;101533.78;4953409;28;19929;-78
2023/08/15 10:40:38;;;;;;;;;;;;;;;22.69;91.73;101534.03;4953338;28;19921;-79
2023/08/15 10:43:25;;;;;;;;;;;;;;;22.81;96.43;101540.25;4963913;28;20483;-79
2023/08/15 10:46:10;;;;;;;;;;;;;;;22.92;93.01;101535.59;4953249;28;19941;-79
2023/08/15 10:49:01;;;;;;;;;;;;;;;22.92;91.33;101535.59;4951809;28;19926;-79
2023/08/15 10:51:47;;;;;;;;;;;;;;;22.90;93.34;101550.22;4965965;28;20022;-78
2023/08/15 10:54:33;;;;;;;;;;;;;;;22.87;91.13;101553.19;4963552;28;20031;-78
2023/08/15 10:57:18;;;;;;;;;;;;;;;22.99;92.77;101548.56;4953698;28;19937;-78
2023/08/15 11:00:04;;;;;;;;;;;;;;;23.12;94.76;101543.78;4947470;28;19929;-79
2023/08/15 11:02:50;;;;;;;;;;;;;;;23.30;94.33;101543.16;4962410;28;19926;-79
2023/08/15 11:05:36;;;;;;;;;;;;;;;23.44;94.70;101547.34;4950956;28;19995;-79
2023/08/15 11:08:22;;;;;;;;;;;;;;;23.69;91.72;101556.78;4951080;28;20041;-79
2023/08/15 11:11:09;;;;;;;;;;;;;;;23.84;86.09;101559.09;4939655;28;19936;-82
2023/08/15 11:13:58;;;;;;;;;;;;;;;23.90;90.25;101553.13;4952022;28;19937;-78
2023/08/15 11:16:47;;;;;;;;;;;;;;;23.99;88.46;101560.41;4959089;28;19978;-78
2023/08/15 11:19:33;;;;;;;;;;;;;;;24.02;84.46;101556.53;4950526;28;20381;-79
2023/08/15 11:22:19;;;;;;;;;;;;;;;24.00;86.94;101554.00;4952066;28;19922;-78
2023/08/15 11:25:08;;;;;;;;;;;;;;;23.91;85.51;101559.41;4951116;28;19954;-78
2023/08/15 11:27:56;;;;;;;;;;;;;;;23.87;84.22;101566.94;4952622;28;19940;-78
2023/08/15 11:30:42;;;;;;;;;;;;;;;23.67;84.81;101566.03;4953043;28;20017;-78
2023/08/15 11:33:31;;;;;;;;;;;;;;;23.54;85.04;101569.81;4963439;28;19925;-78
2023/08/15 11:36:16;;;;;;;;;;;;;;;23.42;90.05;101579.91;4943801;28;20565;-79
2023/08/15 11:39:05;;;;;;;;;;;;;;;23.26;84.70;101579.53;4944576;28;19926;-79
2023/08/15 11:41:50;;;;;;;;;;;;;;;23.28;89.27;101577.53;4952136;28;19925;-79
2023/08/15 11:44:36;;;;;;;;;;;;;;;23.39;87.29;101582.88;4951920;28;20044;-78
2023/08/15 11:47:22;;;;;;;;;;;;;;;23.39;89.17;101582.00;4960476;28;19930;-79
2023/08/15 11:50:08;;;;;;;;;;;;;;;23.33;87.22;101583.44;4951592;28;19933;-79
2023/08/15 11:52:54;;;;;;;;;;;;;;;23.25;87.34;101583.22;4948881;28;20954;-79
2023/08/15 11:55:40;;;;;;;;;;;;;;;23.15;88.25;101581.31;4964085;28;19925;-79
2023/08/15 11:58:26;;;;;;;;;;;;;;;23.09;89.72;101592.66;4950992;28;19965;-78
2023/08/15 12:01:12;;;;;;;;;;;;;;;23.03;92.72;101585.09;4951227;28;19938;-77
2023/08/15 12:03:58;;;;;;;;;;;;;;;23.01;92.18;101589.78;4951416;28;19925;-77
2023/08/15 12:06:44;;;;;;;;;;;;;;;23.09;94.41;101592.66;4952641;28;20472;-78
2023/08/15 12:09:31;;;;;;;;;;;;;;;23.13;91.31;101595.94;4953898;28;20237;-78
2023/08/15 12:12:19;;;;;;;;;;;;;;;23.00;89.12;101599.72;4954736;28;20887;-78
2023/08/15 12:15:08;;;;;;;;;;;;;;;22.84;89.51;101602.03;4954728;28;21782;-78
2023/08/15 12:17:54;;;;;;;;;;;;;;;22.74;90.84;101596.56;4964915;28;20013;-78
2023/08/15 12:20:39;;;;;;;;;;;;;;;22.67;89.71;101593.56;4955331;28;19929;-79
2023/08/15 12:23:28;;;;;;;;;;;;;;;22.71;90.40;101594.16;4956939;28;19926;-79
2023/08/15 12:26:14;;;;;;;;;;;;;;;22.76;91.50;101597.28;4940892;28;19953;-79
2023/08/15 12:28:59;;;;;;;;;;;;;;;22.83;92.28;101600.31;4956923;28;20337;-78
2023/08/15 12:31:45;;;;;;;;;;;;;;;22.92;92.13;101600.38;4955871;28;19940;-79
2023/08/15 12:34:30;;;;;;;;;;;;;;;22.97;91.82;101604.50;4956147;28;20463;-78
2023/08/15 12:37:16;;;;;;;;;;;;;;;22.98;92.44;101606.25;4950803;28;20028;-78
2023/08/15 12:40:02;;;;;;;;;;;;;;;23.02;93.51;101607.69;4957887;28;19933;-77
2023/08/15 12:42:47;;;;;;;;;;;;;;;23.08;89.90;101611.72;4949410;28;20018;-77
2023/08/15 12:45:33;;;;;;;;;;;;;;;23.03;89.90;101615.66;4951566;28;20321;-78
2023/08/15 12:48:21;;;;;;;;;;;;;;;22.97;89.28;101618.88;4954314;28;19953;-77
2023/08/15 12:51:08;;;;;;;;;;;;;;;23.02;89.28;101618.47;4953287;28;19973;-78
2023/08/15 12:53:54;;;;;;;;;;;;;;;23.18;89.86;101624.28;4951320;28;19932;-77
2023/08/15 12:56:39;;;;;;;;;;;;;;;23.19;91.30;101628.69;4953432;28;19955;-76
2023/08/15 12:59:25;;;;;;;;;;;;;;;23.17;88.97;101625.25;4953857;28;19922;-79
2023/08/15 13:02:11;;;;;;;;;;;;;;;23.18;84.93;101629.66;4959122;28;19932;-78
2023/08/15 13:04:57;;;;;;;;;;;;;;;23.07;85.32;101629.75;4961492;28;19926;-77
2023/08/15 13:07:42;;;;;;;;;;;;;;;22.95;87.74;101630.78;4955716;28;19926;-82
2023/08/15 13:10:30;;;;;;;;;;;;;;;22.88;86.16;101633.19;4957018;28;20802;-79
2023/08/15 13:13:16;;;;;;;;;;;;;;;22.95;90.20;101628.09;4953245;28;21840;-79
2023/08/15 13:16:05;;;;;;;;;;;;;;;23.09;87.23;101627.75;4956875;28;19930;-79
2023/08/15 13:18:50;;;;;;;;;;;;;;;23.09;87.02;101630.44;4959220;28;21990;-80
2023/08/15 13:21:36;;;;;;;;;;;;;;;23.11;86.29;101639.31;4959887;28;21327;-78
2023/08/15 13:24:22;;;;;;;;;;;;;;;23.04;84.46;101630.84;4959544;28;19936;-80
2023/08/15 13:27:08;;;;;;;;;;;;;;;22.89;87.19;101627.63;4960059;28;19934;-81
2023/08/15 13:29:53;;;;;;;;;;;;;;;22.79;87.03;101635.66;4957067;28;20395;-81
2023/08/15 13:32:45;;;;;;;;;;;;;;;22.84;88.75;101631.72;4960690;28;20001;-82
2023/08/15 13:35:30;;;;;;;;;;;;;;;22.86;83.45;101618.94;4957384;28;19930;-82
2023/08/15 13:38:16;;;;;;;;;;;;;;;22.80;84.27;101631.13;4954169;28;19929;-79
2023/08/15 13:41:02;;;;;;;;;;;;;;;22.80;83.68;101639.22;4955346;28;19930;-78
2023/08/15 13:43:48;;;;;;;;;;;;;;;22.86;83.95;101649.50;4957153;28;19926;-79
2023/08/15 13:46:34;;;;;;;;;;;;;;;22.79;83.48;101643.75;4957355;28;19995;-79
2023/08/15 13:49:20;;;;;;;;;;;;;;;22.78;86.06;101643.91;4955066;28;19922;-79
2023/08/15 13:52:06;;;;;;;;;;;;;;;22.90;83.86;101650.09;4938914;28;20061;-83
2023/08/15 13:54:52;;;;;;;;;;;;;;;22.96;83.61;101646.88;4957455;28;20408;-81
2023/08/15 13:57:38;;;;;;;;;;;;;;;23.00;85.08;101652.84;4959333;28;20643;-80
2023/08/15 14:00:24;;;;;;;;;;;;;;;23.09;84.06;101648.53;4958834;28;20067;-82
2023/08/15 14:03:09;;;;;;;;;;;;;;;23.10;80.78;101651.06;4956905;28;19927;-80
2023/08/15 14:05:55;;;;;;;;;;;;;;;23.10;80.99;101661.88;4958966;28;19973;-82
2023/08/15 14:08:41;;;;;;;;;;;;;;;23.09;82.55;101657.44;4960868;28;19930;-80